Weather at Hermiston Municipal Airport

Public forecast

Using degrees Fahrenheit for public forecast. Weather courtesy of forecast.io.

Current aviation weather report (METAR) for Hermiston Municipal Airport

Retrieved 2022/05/23 06:53 UTC (53 minutes ago):

KHRI 230653Z AUTO 10004KT 10SM CLR 11/06 A3012 RMK AO2 SLP199 T01060056

Closest aviation forecast (TAF) to Hermiston Municipal Airport

Closest forecast is Eastern Oregon Regional At Pendleton Airport, 19.2 nm (35.6 km) ESE. Retrieved 2022/05/23 06:22 UTC (1 hour ago):

TAF KPDT 230520Z 2306/2406 14007KT P6SM OVC180 FM231500 22008KT P6SM BKN100 FM232300 26025G35KT P6SM VCSH BKN070 FM240500 26018G26KT P6SM OVC070